sensor_id;sensor_type;location;lat;lon;timestamp;P1;durP1;ratioP1;P2;durP2;ratioP2
25129;SDS011;13308;50.860;13.664;2022-10-16T06:02:56;4.10;;;3.75;;
25129;SDS011;13308;50.860;13.664;2022-10-16T06:05:21;3.72;;;3.42;;
25129;SDS011;13308;50.860;13.664;2022-10-16T06:07:46;3.30;;;3.00;;
25129;SDS011;13308;50.860;13.664;2022-10-16T06:10:12;3.00;;;2.80;;
25129;SDS011;13308;50.860;13.664;2022-10-16T06:12:37;3.42;;;3.13;;
25129;SDS011;13308;50.860;13.664;2022-10-16T06:15:02;4.85;;;3.47;;
25129;SDS011;13308;50.860;13.664;2022-10-16T06:17:28;3.45;;;3.15;;
25129;SDS011;13308;50.860;13.664;2022-10-16T06:19:53;3.30;;;3.00;;
25129;SDS011;13308;50.860;13.664;2022-10-16T06:22:19;3.38;;;3.03;;
25129;SDS011;13308;50.860;13.664;2022-10-16T06:24:44;2.60;;;2.40;;
25129;SDS011;13308;50.860;13.664;2022-10-16T06:27:11;2.75;;;2.55;;
25129;SDS011;13308;50.860;13.664;2022-10-16T06:29:36;2.72;;;2.53;;
25129;SDS011;13308;50.860;13.664;2022-10-16T06:32:02;2.63;;;2.42;;
25129;SDS011;13308;50.860;13.664;2022-10-16T06:34:27;2.60;;;2.40;;
25129;SDS011;13308;50.860;13.664;2022-10-16T06:36:52;2.17;;;1.98;;
25129;SDS011;13308;50.860;13.664;2022-10-16T06:39:18;2.20;;;2.00;;
25129;SDS011;13308;50.860;13.664;2022-10-16T06:41:43;1.80;;;1.65;;
25129;SDS011;13308;50.860;13.664;2022-10-16T06:44:14;1.45;;;1.35;;
25129;SDS011;13308;50.860;13.664;2022-10-16T06:46:40;1.00;;;0.95;;
25129;SDS011;13308;50.860;13.664;2022-10-16T06:49:05;1.58;;;1.20;;
25129;SDS011;13308;50.860;13.664;2022-10-16T06:51:30;1.30;;;1.17;;
25129;SDS011;13308;50.860;13.664;2022-10-16T06:53:58;0.60;;;0.60;;
25129;SDS011;13308;50.860;13.664;2022-10-16T06:56:25;0.95;;;0.95;;
25129;SDS011;13308;50.860;13.664;2022-10-16T06:58:52;0.98;;;0.98;;
25129;SDS011;13308;50.860;13.664;2022-10-16T07:01:20;1.52;;;1.42;;
25129;SDS011;13308;50.860;13.664;2022-10-16T07:03:47;1.50;;;1.40;;
25129;SDS011;13308;50.860;13.664;2022-10-16T07:06:14;1.95;;;1.83;;
25129;SDS011;13308;50.860;13.664;2022-10-16T07:08:43;3.08;;;2.75;;
25129;SDS011;13308;50.860;13.664;2022-10-16T07:11:11;2.70;;;2.45;;
25129;SDS011;13308;50.860;13.664;2022-10-16T07:13:40;3.58;;;3.28;;
25129;SDS011;13308;50.860;13.664;2022-10-16T07:16:26;3.88;;;3.58;;
25129;SDS011;13308;50.860;13.664;2022-10-16T07:18:59;5.22;;;4.38;;
25129;SDS011;13308;50.860;13.664;2022-10-16T07:21:27;5.90;;;4.80;;
25129;SDS011;13308;50.860;13.664;2022-10-16T07:24:00;6.30;;;5.80;;
25129;SDS011;13308;50.860;13.664;2022-10-16T07:26:27;6.45;;;5.85;;
25129;SDS011;13308;50.860;13.664;2022-10-16T07:28:55;7.10;;;6.50;;
25129;SDS011;13308;50.860;13.664;2022-10-16T07:31:21;5.88;;;5.38;;
25129;SDS011;13308;50.860;13.664;2022-10-16T07:33:47;6.45;;;5.85;;
25129;SDS011;13308;50.860;13.664;2022-10-16T07:36:14;6.32;;;5.47;;
25129;SDS011;13308;50.860;13.664;2022-10-16T07:38:41;6.70;;;5.38;;
25129;SDS011;13308;50.860;13.664;2022-10-16T07:41:07;7.15;;;6.45;;
25129;SDS011;13308;50.860;13.664;2022-10-16T07:43:38;6.32;;;5.78;;
25129;SDS011;13308;50.860;13.664;2022-10-16T07:46:04;5.97;;;5.47;;
25129;SDS011;13308;50.860;13.664;2022-10-16T07:48:31;5.90;;;5.40;;
25129;SDS011;13308;50.860;13.664;2022-10-16T07:50:59;5.95;;;5.45;;
25129;SDS011;13308;50.860;13.664;2022-10-16T07:53:25;5.85;;;5.35;;
25129;SDS011;13308;50.860;13.664;2022-10-16T07:55:51;5.20;;;4.80;;
25129;SDS011;13308;50.860;13.664;2022-10-16T07:58:16;4.78;;;4.38;;
25129;SDS011;13308;50.860;13.664;2022-10-16T08:00:41;4.90;;;4.50;;
25129;SDS011;13308;50.860;13.664;2022-10-16T08:03:07;4.28;;;3.97;;
25129;SDS011;13308;50.860;13.664;2022-10-16T08:05:33;3.80;;;3.50;;
25129;SDS011;13308;50.860;13.664;2022-10-16T08:08:00;3.95;;;3.65;;
25129;SDS011;13308;50.860;13.664;2022-10-16T08:10:27;3.80;;;3.50;;
25129;SDS011;13308;50.860;13.664;2022-10-16T08:12:53;4.60;;;3.97;;
25129;SDS011;13308;50.860;13.664;2022-10-16T08:15:19;3.65;;;3.35;;
25129;SDS011;13308;50.860;13.664;2022-10-16T08:17:44;4.18;;;3.88;;
25129;SDS011;13308;50.860;13.664;2022-10-16T08:20:19;4.07;;;3.70;;
25129;SDS011;13308;50.860;13.664;2022-10-16T08:22:45;3.50;;;3.20;;
25129;SDS011;13308;50.860;13.664;2022-10-16T08:25:10;3.15;;;2.95;;
25129;SDS011;13308;50.860;13.664;2022-10-16T08:27:36;2.53;;;2.33;;
25129;SDS011;13308;50.860;13.664;2022-10-16T08:30:01;3.35;;;3.05;;
25129;SDS011;13308;50.860;13.664;2022-10-16T08:32:27;3.00;;;2.42;;
25129;SDS011;13308;50.860;13.664;2022-10-16T08:34:52;2.20;;;2.08;;
25129;SDS011;13308;50.860;13.664;2022-10-16T08:37:18;3.25;;;2.53;;
25129;SDS011;13308;50.860;13.664;2022-10-16T08:39:43;3.55;;;2.00;;
25129;SDS011;13308;50.860;13.664;2022-10-16T08:47:42;1.80;;;1.70;;
25129;SDS011;13308;50.860;13.664;2022-10-16T08:50:22;3.50;;;1.50;;
25129;SDS011;13308;50.860;13.664;2022-10-16T08:52:52;1.40;;;1.30;;
25129;SDS011;13308;50.860;13.664;2022-10-16T08:55:34;1.50;;;1.40;;
25129;SDS011;13308;50.860;13.664;2022-10-16T08:58:13;1.52;;;1.42;;
25129;SDS011;13308;50.860;13.664;2022-10-16T09:00:40;7.07;;;5.90;;
25129;SDS011;13308;50.860;13.664;2022-10-16T09:03:22;3.97;;;3.67;;
25129;SDS011;13308;50.860;13.664;2022-10-16T09:06:07;2.72;;;2.53;;
25129;SDS011;13308;50.860;13.664;2022-10-16T09:08:56;44.88;;;26.20;;
25129;SDS011;13308;50.860;13.664;2022-10-16T09:14:11;33.83;;;23.35;;
25129;SDS011;13308;50.860;13.664;2022-10-16T09:17:20;0.93;;;0.77;;
25129;SDS011;13308;50.860;13.664;2022-10-16T09:19:53;0.73;;;0.73;;
25129;SDS011;13308;50.860;13.664;2022-10-16T09:22:27;1.85;;;0.70;;
25129;SDS011;13308;50.860;13.664;2022-10-16T09:24:57;2.55;;;2.35;;
25129;SDS011;13308;50.860;13.664;2022-10-16T09:27:25;2.58;;;2.38;;
25129;SDS011;13308;50.860;13.664;2022-10-16T09:29:55;2.45;;;1.40;;
25129;SDS011;13308;50.860;13.664;2022-10-16T09:32:21;2.72;;;2.17;;
25129;SDS011;13308;50.860;13.664;2022-10-16T09:34:48;3.50;;;3.22;;
25129;SDS011;13308;50.860;13.664;2022-10-16T09:37:19;3.20;;;2.90;;
25129;SDS011;13308;50.860;13.664;2022-10-16T09:39:51;5.05;;;4.65;;
25129;SDS011;13308;50.860;13.664;2022-10-16T09:42:27;9.88;;;8.95;;
25129;SDS011;13308;50.860;13.664;2022-10-16T09:44:57;2.33;;;2.13;;
25129;SDS011;13308;50.860;13.664;2022-10-16T09:47:23;2.50;;;2.30;;
25129;SDS011;13308;50.860;13.664;2022-10-16T09:50:02;10.68;;;9.65;;
25129;SDS011;13308;50.860;13.664;2022-10-16T09:52:40;8.32;;;7.63;;
25129;SDS011;13308;50.860;13.664;2022-10-16T09:55:16;5.68;;;5.22;;
25129;SDS011;13308;50.860;13.664;2022-10-16T09:57:52;7.32;;;6.63;;
25129;SDS011;13308;50.860;13.664;2022-10-16T10:00:19;5.32;;;4.82;;
25129;SDS011;13308;50.860;13.664;2022-10-16T10:02:45;2.92;;;2.70;;
25129;SDS011;13308;50.860;13.664;2022-10-16T10:05:27;4.05;;;3.75;;
25129;SDS011;13308;50.860;13.664;2022-10-16T10:07:55;11.70;;;9.25;;
25129;SDS011;13308;50.860;13.664;2022-10-16T10:10:26;10.52;;;6.97;;
25129;SDS011;13308;50.860;13.664;2022-10-16T10:12:54;6.25;;;5.57;;
25129;SDS011;13308;50.860;13.664;2022-10-16T10:15:20;3.97;;;3.67;;
25129;SDS011;13308;50.860;13.664;2022-10-16T10:17:55;6.25;;;5.18;;
25129;SDS011;13308;50.860;13.664;2022-10-16T10:22:59;4.68;;;2.80;;
25129;SDS011;13308;50.860;13.664;2022-10-16T10:26:27;4.80;;;4.40;;
25129;SDS011;13308;50.860;13.664;2022-10-16T10:31:34;2.25;;;2.00;;
25129;SDS011;13308;50.860;13.664;2022-10-16T10:34:19;2.80;;;2.60;;
25129;SDS011;13308;50.860;13.664;2022-10-16T10:37:03;1.67;;;1.58;;
25129;SDS011;13308;50.860;13.664;2022-10-16T10:39:43;1.17;;;1.08;;
25129;SDS011;13308;50.860;13.664;2022-10-16T10:42:23;0.80;;;0.80;;
25129;SDS011;13308;50.860;13.664;2022-10-16T10:45:16;0.60;;;0.60;;
25129;SDS011;13308;50.860;13.664;2022-10-16T11:01:12;2.15;;;0.63;;
25129;SDS011;13308;50.860;13.664;2022-10-16T11:03:42;0.50;;;0.50;;
25129;SDS011;13308;50.860;13.664;2022-10-16T11:09:37;0.65;;;0.60;;
25129;SDS011;13308;50.860;13.664;2022-10-16T11:12:00;1.02;;;0.93;;
25129;SDS011;13308;50.860;13.664;2022-10-16T11:17:01;1.00;;;0.70;;
25129;SDS011;13308;50.860;13.664;2022-10-16T11:19:41;0.85;;;0.73;;
25129;SDS011;13308;50.860;13.664;2022-10-16T11:22:17;0.50;;;0.50;;
25129;SDS011;13308;50.860;13.664;2022-10-16T11:24:54;0.40;;;0.40;;
25129;SDS011;13308;50.860;13.664;2022-10-16T11:27:36;1.40;;;1.25;;
25129;SDS011;13308;50.860;13.664;2022-10-16T11:30:08;1.05;;;0.65;;
25129;SDS011;13308;50.860;13.664;2022-10-16T11:32:49;0.90;;;0.90;;
25129;SDS011;13308;50.860;13.664;2022-10-16T11:35:30;1.95;;;1.30;;
25129;SDS011;13308;50.860;13.664;2022-10-16T11:38:03;0.60;;;0.60;;
25129;SDS011;13308;50.860;13.664;2022-10-16T11:40:38;0.98;;;0.85;;
25129;SDS011;13308;50.860;13.664;2022-10-16T11:43:16;0.80;;;0.80;;
25129;SDS011;13308;50.860;13.664;2022-10-16T11:45:51;1.60;;;1.50;;
25129;SDS011;13308;50.860;13.664;2022-10-16T11:56:07;0.73;;;0.68;;
25129;SDS011;13308;50.860;13.664;2022-10-16T11:58:41;0.70;;;0.70;;
25129;SDS011;13308;50.860;13.664;2022-10-16T12:01:31;0.60;;;0.60;;
25129;SDS011;13308;50.860;13.664;2022-10-16T12:06:39;0.73;;;0.73;;
25129;SDS011;13308;50.860;13.664;2022-10-16T12:09:11;0.60;;;0.60;;
25129;SDS011;13308;50.860;13.664;2022-10-16T12:11:45;0.60;;;0.60;;
25129;SDS011;13308;50.860;13.664;2022-10-16T12:16:37;0.55;;;0.55;;
25129;SDS011;13308;50.860;13.664;2022-10-16T12:19:09;0.50;;;0.50;;
25129;SDS011;13308;50.860;13.664;2022-10-16T12:21:37;0.60;;;0.60;;
25129;SDS011;13308;50.860;13.664;2022-10-16T12:24:03;0.50;;;0.50;;
25129;SDS011;13308;50.860;13.664;2022-10-16T12:26:32;0.45;;;0.45;;
25129;SDS011;13308;50.860;13.664;2022-10-16T12:29:11;0.60;;;0.55;;
25129;SDS011;13308;50.860;13.664;2022-10-16T12:31:43;0.50;;;0.50;;
25129;SDS011;13308;50.860;13.664;2022-10-16T12:34:20;0.63;;;0.63;;
25129;SDS011;13308;50.860;13.664;2022-10-16T12:36:52;0.68;;;0.68;;
25129;SDS011;13308;50.860;13.664;2022-10-16T12:39:27;2.45;;;0.55;;
25129;SDS011;13308;50.860;13.664;2022-10-16T12:42:17;0.40;;;0.40;;
25129;SDS011;13308;50.860;13.664;2022-10-16T12:44:44;0.68;;;0.68;;
25129;SDS011;13308;50.860;13.664;2022-10-16T12:47:18;0.50;;;0.50;;
25129;SDS011;13308;50.860;13.664;2022-10-16T12:49:50;0.60;;;0.60;;
25129;SDS011;13308;50.860;13.664;2022-10-16T12:52:27;0.70;;;0.70;;
25129;SDS011;13308;50.860;13.664;2022-10-16T12:55:00;0.70;;;0.70;;
25129;SDS011;13308;50.860;13.664;2022-10-16T13:02:57;0.47;;;0.47;;
25129;SDS011;13308;50.860;13.664;2022-10-16T13:05:43;0.70;;;0.63;;
25129;SDS011;13308;50.860;13.664;2022-10-16T13:11:14;0.85;;;0.85;;
25129;SDS011;13308;50.860;13.664;2022-10-16T13:25:43;1.30;;;1.20;;
25129;SDS011;13308;50.860;13.664;2022-10-16T13:28:34;1.13;;;1.10;;
25129;SDS011;13308;50.860;13.664;2022-10-16T13:31:02;1.55;;;1.23;;
25129;SDS011;13308;50.860;13.664;2022-10-16T13:33:39;1.27;;;1.10;;
25129;SDS011;13308;50.860;13.664;2022-10-16T13:36:06;1.30;;;1.20;;
25129;SDS011;13308;50.860;13.664;2022-10-16T13:38:32;1.23;;;1.15;;
25129;SDS011;13308;50.860;13.664;2022-10-16T13:41:11;1.50;;;1.40;;
25129;SDS011;13308;50.860;13.664;2022-10-16T13:43:40;1.67;;;1.58;;
25129;SDS011;13308;50.860;13.664;2022-10-16T13:48:42;1.60;;;1.50;;
25129;SDS011;13308;50.860;13.664;2022-10-16T13:51:15;1.80;;;1.70;;
25129;SDS011;13308;50.860;13.664;2022-10-16T13:53:42;1.35;;;1.25;;
25129;SDS011;13308;50.860;13.664;2022-10-16T13:56:12;3.20;;;1.55;;
25129;SDS011;13308;50.860;13.664;2022-10-16T13:58:39;1.80;;;1.50;;
25129;SDS011;13308;50.860;13.664;2022-10-16T14:03:49;3.90;;;1.98;;
25129;SDS011;13308;50.860;13.664;2022-10-16T14:06:17;1.38;;;1.15;;
25129;SDS011;13308;50.860;13.664;2022-10-16T14:08:52;1.50;;;1.40;;
25129;SDS011;13308;50.860;13.664;2022-10-16T14:11:24;1.40;;;1.30;;
25129;SDS011;13308;50.860;13.664;2022-10-16T14:13:50;1.60;;;1.50;;
25129;SDS011;13308;50.860;13.664;2022-10-16T14:16:18;1.20;;;0.90;;
25129;SDS011;13308;50.860;13.664;2022-10-16T14:18:56;0.90;;;0.90;;
25129;SDS011;13308;50.860;13.664;2022-10-16T14:21:24;1.10;;;0.70;;
25129;SDS011;13308;50.860;13.664;2022-10-16T14:23:50;1.88;;;0.65;;
25129;SDS011;13308;50.860;13.664;2022-10-16T14:26:17;0.75;;;0.60;;
25129;SDS011;13308;50.860;13.664;2022-10-16T14:28:45;0.57;;;0.50;;
25129;SDS011;13308;50.860;13.664;2022-10-16T14:31:53;0.70;;;0.70;;
25129;SDS011;13308;50.860;13.664;2022-10-16T14:34:01;1.17;;;0.70;;
25129;SDS011;13308;50.860;13.664;2022-10-16T14:36:27;1.15;;;0.80;;
25129;SDS011;13308;50.860;13.664;2022-10-16T14:38:56;1.38;;;0.70;;
25129;SDS011;13308;50.860;13.664;2022-10-16T14:41:25;0.52;;;0.52;;
25129;SDS011;13308;50.860;13.664;2022-10-16T14:43:52;0.60;;;0.60;;
25129;SDS011;13308;50.860;13.664;2022-10-16T14:46:28;0.60;;;0.60;;
25129;SDS011;13308;50.860;13.664;2022-10-16T14:51:34;0.73;;;0.70;;
25129;SDS011;13308;50.860;13.664;2022-10-16T14:54:00;3.25;;;0.90;;
25129;SDS011;13308;50.860;13.664;2022-10-16T14:56:30;0.70;;;0.70;;
25129;SDS011;13308;50.860;13.664;2022-10-16T14:59:07;0.65;;;0.65;;
25129;SDS011;13308;50.860;13.664;2022-10-16T15:01:38;0.85;;;0.80;;
25129;SDS011;13308;50.860;13.664;2022-10-16T15:04:03;1.23;;;1.00;;
25129;SDS011;13308;50.860;13.664;2022-10-16T15:06:29;0.70;;;0.70;;
25129;SDS011;13308;50.860;13.664;2022-10-16T15:08:54;0.60;;;0.60;;
25129;SDS011;13308;50.860;13.664;2022-10-16T15:11:19;0.80;;;0.80;;
25129;SDS011;13308;50.860;13.664;2022-10-16T15:13:45;0.75;;;0.70;;
25129;SDS011;13308;50.860;13.664;2022-10-16T15:16:12;1.17;;;0.82;;
25129;SDS011;13308;50.860;13.664;2022-10-16T15:18:39;0.52;;;0.52;;
25129;SDS011;13308;50.860;13.664;2022-10-16T15:21:05;0.70;;;0.63;;
25129;SDS011;13308;50.860;13.664;2022-10-16T15:23:30;0.80;;;0.80;;
25129;SDS011;13308;50.860;13.664;2022-10-16T15:25:56;0.75;;;0.75;;
25129;SDS011;13308;50.860;13.664;2022-10-16T15:28:22;3.30;;;0.70;;
25129;SDS011;13308;50.860;13.664;2022-10-16T15:30:50;0.77;;;0.60;;
25129;SDS011;13308;50.860;13.664;2022-10-16T15:33:17;0.95;;;0.77;;
25129;SDS011;13308;50.860;13.664;2022-10-16T15:35:48;0.85;;;0.85;;
25129;SDS011;13308;50.860;13.664;2022-10-16T15:38:16;1.85;;;1.75;;
25129;SDS011;13308;50.860;13.664;2022-10-16T15:40:43;1.50;;;1.40;;
25129;SDS011;13308;50.860;13.664;2022-10-16T15:43:08;1.00;;;1.00;;
25129;SDS011;13308;50.860;13.664;2022-10-16T15:45:34;1.33;;;0.75;;
25129;SDS011;13308;50.860;13.664;2022-10-16T15:47:59;0.90;;;0.70;;
25129;SDS011;13308;50.860;13.664;2022-10-16T15:50:25;0.80;;;0.80;;
25129;SDS011;13308;50.860;13.664;2022-10-16T15:52:51;2.15;;;0.80;;
25129;SDS011;13308;50.860;13.664;2022-10-16T15:55:16;0.75;;;0.75;;
25129;SDS011;13308;50.860;13.664;2022-10-16T15:57:43;1.25;;;0.98;;
25129;SDS011;13308;50.860;13.664;2022-10-16T16:00:13;0.90;;;0.90;;
25129;SDS011;13308;50.860;13.664;2022-10-16T16:02:41;0.75;;;0.73;;
25129;SDS011;13308;50.860;13.664;2022-10-16T16:05:07;0.65;;;0.60;;
25129;SDS011;13308;50.860;13.664;2022-10-16T16:07:37;0.82;;;0.82;;
25129;SDS011;13308;50.860;13.664;2022-10-16T16:10:05;1.23;;;0.90;;
25129;SDS011;13308;50.860;13.664;2022-10-16T16:12:33;1.20;;;1.10;;
25129;SDS011;13308;50.860;13.664;2022-10-16T16:14:58;1.30;;;1.20;;
25129;SDS011;13308;50.860;13.664;2022-10-16T16:17:24;2.00;;;1.80;;
25129;SDS011;13308;50.860;13.664;2022-10-16T16:19:50;5.20;;;4.70;;
25129;SDS011;13308;50.860;13.664;2022-10-16T16:22:15;7.38;;;6.38;;
25129;SDS011;13308;50.860;13.664;2022-10-16T16:24:41;6.03;;;5.50;;
25129;SDS011;13308;50.860;13.664;2022-10-16T16:27:06;6.32;;;5.63;;
25129;SDS011;13308;50.860;13.664;2022-10-16T16:29:32;10.63;;;7.20;;
25129;SDS011;13308;50.860;13.664;2022-10-16T16:31:58;13.93;;;8.27;;
25129;SDS011;13308;50.860;13.664;2022-10-16T16:34:25;12.43;;;7.63;;
25129;SDS011;13308;50.860;13.664;2022-10-16T16:36:51;5.32;;;4.82;;
25129;SDS011;13308;50.860;13.664;2022-10-16T16:39:17;4.82;;;3.80;;
25129;SDS011;13308;50.860;13.664;2022-10-16T16:41:43;4.03;;;3.47;;
25129;SDS011;13308;50.860;13.664;2022-10-16T16:44:10;5.13;;;3.67;;
25129;SDS011;13308;50.860;13.664;2022-10-16T16:46:37;5.18;;;3.75;;
25129;SDS011;13308;50.860;13.664;2022-10-16T16:49:05;3.45;;;3.15;;
25129;SDS011;13308;50.860;13.664;2022-10-16T16:51:31;3.63;;;3.22;;
25129;SDS011;13308;50.860;13.664;2022-10-16T16:53:57;8.27;;;3.83;;
25129;SDS011;13308;50.860;13.664;2022-10-16T16:56:23;3.58;;;3.28;;
25129;SDS011;13308;50.860;13.664;2022-10-16T16:58:50;3.55;;;3.03;;
25129;SDS011;13308;50.860;13.664;2022-10-16T17:01:17;5.97;;;2.83;;
25129;SDS011;13308;50.860;13.664;2022-10-16T17:03:43;2.60;;;2.40;;
25129;SDS011;13308;50.860;13.664;2022-10-16T17:06:09;2.63;;;2.42;;
25129;SDS011;13308;50.860;13.664;2022-10-16T17:08:36;3.72;;;3.03;;
25129;SDS011;13308;50.860;13.664;2022-10-16T17:11:03;2.88;;;2.63;;
25129;SDS011;13308;50.860;13.664;2022-10-16T17:13:30;4.32;;;2.47;;
25129;SDS011;13308;50.860;13.664;2022-10-16T17:15:59;3.42;;;3.05;;
25129;SDS011;13308;50.860;13.664;2022-10-16T17:18:25;5.25;;;4.75;;
25129;SDS011;13308;50.860;13.664;2022-10-16T17:20:51;3.28;;;2.97;;
25129;SDS011;13308;50.860;13.664;2022-10-16T17:23:17;3.22;;;2.92;;
25129;SDS011;13308;50.860;13.664;2022-10-16T17:25:43;3.05;;;2.75;;
25129;SDS011;13308;50.860;13.664;2022-10-16T17:28:10;5.00;;;2.72;;
25129;SDS011;13308;50.860;13.664;2022-10-16T17:30:37;3.58;;;3.30;;
25129;SDS011;13308;50.860;13.664;2022-10-16T17:33:04;4.20;;;3.80;;
25129;SDS011;13308;50.860;13.664;2022-10-16T17:35:35;4.38;;;3.97;;
25129;SDS011;13308;50.860;13.664;2022-10-16T17:38:02;5.35;;;3.70;;
